Time;durP1;ratioP1;P1;durP2;ratioP2;P2;SDS_P1;SDS_P2;PMS_P1;PMS_P2;Temp;Humidity;BMP_temperature;BMP_pressure;BME280_temperature;BME280_humidity;BME280_pressure;Samples;Min_cycle;Max_cycle;Signal;HPM_P1;HPM_P2
2022/05/15 00:02:06;;;;;;;;;;;;;;;17.66;48.16;101773.25;5003813;28;97622;-66
2022/05/15 00:04:35;;;;;;;;;;;;;;;17.77;48.20;101765.59;5008508;28;99990;-67
2022/05/15 00:07:02;;;;;;;;;;;;;;;17.86;47.88;101769.59;5004616;28;97230;-67
2022/05/15 00:09:28;;;;;;;;;;;;;;;17.60;48.67;101768.19;5008419;28;96753;-67
2022/05/15 00:11:55;;;;;;;;;;;;;;;17.58;48.58;101774.56;5011951;28;101642;-68
2022/05/15 00:14:21;;;;;;;;;;;;;;;17.28;49.38;101777.72;5008514;28;101025;-66
2022/05/15 00:16:48;;;;;;;;;;;;;;;17.17;49.87;101780.03;5011825;28;97068;-67
2022/05/15 00:19:14;;;;;;;;;;;;;;;17.39;49.03;101775.41;5008001;28;96830;-67
2022/05/15 00:21:42;;;;;;;;;;;;;;;17.14;49.62;101778.38;5003977;28;99030;-67
2022/05/15 00:24:09;;;;;;;;;;;;;;;17.30;49.21;101770.53;5002712;28;97447;-66
2022/05/15 00:26:36;;;;;;;;;;;;;;;17.38;49.22;101773.69;5001972;28;96870;-68
2022/05/15 00:29:03;;;;;;;;;;;;;;;17.23;49.55;101778.88;5004381;28;96774;-67
2022/05/15 00:31:30;;;;;;;;;;;;;;;17.14;49.87;101782.84;5009480;28;102073;-67
2022/05/15 00:33:56;;;;;;;;;;;;;;;17.07;50.06;101771.59;5005539;28;99286;-66
2022/05/15 00:36:23;;;;;;;;;;;;;;;17.09;50.09;101777.72;5005005;28;98146;-66
2022/05/15 00:38:50;;;;;;;;;;;;;;;17.12;49.93;101779.41;5006249;28;96880;-67
2022/05/15 00:41:17;;;;;;;;;;;;;;;17.42;49.25;101779.75;5007437;28;98880;-67
2022/05/15 00:43:45;;;;;;;;;;;;;;;17.20;49.50;101769.19;5009834;28;98750;-68
2022/05/15 00:46:13;;;;;;;;;;;;;;;17.14;49.88;101778.38;5008023;28;96754;-67
2022/05/15 00:48:39;;;;;;;;;;;;;;;16.99;50.41;101776.44;5009737;28;96928;-68
2022/05/15 00:51:10;;;;;;;;;;;;;;;17.16;49.72;101775.63;5005450;28;97773;-68
2022/05/15 00:53:36;;;;;;;;;;;;;;;17.35;49.28;101772.97;5000331;28;97693;-67
2022/05/15 00:56:04;;;;;;;;;;;;;;;17.20;49.11;101769.19;5003084;28;98690;-67
2022/05/15 00:58:33;;;;;;;;;;;;;;;17.18;49.03;101770.22;5005932;28;96936;-67
2022/05/15 01:01:00;;;;;;;;;;;;;;;17.25;48.88;101771.69;5000331;28;98108;-68
2022/05/15 01:03:26;;;;;;;;;;;;;;;17.42;48.95;101777.09;4999388;28;97664;-68
2022/05/15 01:05:54;;;;;;;;;;;;;;;17.34;49.13;101771.22;5006930;27;97459;-66
2022/05/15 01:08:23;;;;;;;;;;;;;;;17.39;48.92;101774.56;5001882;28;96947;-67
2022/05/15 01:10:51;;;;;;;;;;;;;;;17.39;49.01;101785.25;5002270;28;99156;-68
2022/05/15 01:13:21;;;;;;;;;;;;;;;17.29;49.30;101776.78;5006802;28;99063;-66
2022/05/15 01:15:48;;;;;;;;;;;;;;;17.45;48.81;101782.28;5000955;28;98729;-66
2022/05/15 01:18:21;;;;;;;;;;;;;;;17.30;48.97;101781.22;4996890;28;97889;-67
2022/05/15 01:20:47;;;;;;;;;;;;;;;17.21;49.37;101783.44;4999632;28;99721;-67
2022/05/15 01:23:15;;;;;;;;;;;;;;;17.25;48.98;101785.03;5001820;28;97828;-67
2022/05/15 01:25:42;;;;;;;;;;;;;;;17.12;49.25;101782.94;5001826;28;99390;-67
2022/05/15 01:28:10;;;;;;;;;;;;;;;16.94;49.58;101788.22;5004131;28;99180;-66
2022/05/15 01:30:38;;;;;;;;;;;;;;;16.89;48.27;101780.44;4995360;28;100562;-67
2022/05/15 01:33:05;;;;;;;;;;;;;;;16.91;49.91;101788.38;5000800;28;101626;-67
2022/05/15 01:35:31;;;;;;;;;;;;;;;17.18;49.39;101784.47;5002886;28;97091;-67
2022/05/15 01:37:57;;;;;;;;;;;;;;;16.95;50.08;101787.31;4995014;28;97245;-67
2022/05/15 01:40:25;;;;;;;;;;;;;;;17.22;49.43;101782.50;4999263;28;101010;-67
2022/05/15 01:42:52;;;;;;;;;;;;;;;16.82;50.29;101784.31;4998813;28;100172;-67
2022/05/15 01:45:18;;;;;;;;;;;;;;;17.03;49.93;101786.03;4999392;28;97692;-67
2022/05/15 01:47:44;;;;;;;;;;;;;;;16.73;50.72;101784.75;5002733;28;97722;-66
2022/05/15 01:50:12;;;;;;;;;;;;;;;16.50;51.29;101784.84;4999047;28;104053;-66
2022/05/15 01:52:39;;;;;;;;;;;;;;;16.35;51.74;101787.25;5000632;28;97581;-67
2022/05/15 01:55:06;;;;;;;;;;;;;;;16.45;51.19;101784.19;4996029;28;98673;-66
2022/05/15 01:57:34;;;;;;;;;;;;;;;16.41;51.65;101786.09;5000489;28;98579;-65
2022/05/15 02:00:00;;;;;;;;;;;;;;;16.22;52.44;101793.16;5003015;28;101574;-66
2022/05/15 02:02:27;;;;;;;;;;;;;;;16.16;52.59;101791.63;5002981;28;101579;-66
2022/05/15 02:04:53;;;;;;;;;;;;;;;16.15;52.92;101789.00;5000514;28;96907;-65
2022/05/15 02:07:20;;;;;;;;;;;;;;;15.97;53.30;101787.13;5006026;28;97656;-66
2022/05/15 02:09:46;;;;;;;;;;;;;;;16.31;52.73;101793.66;4997696;28;99348;-66
2022/05/15 02:12:12;;;;;;;;;;;;;;;16.33;51.88;101791.78;5001839;28;98214;-66
2022/05/15 02:14:40;;;;;;;;;;;;;;;16.19;52.12;101796.84;5005255;28;96765;-66
2022/05/15 02:17:06;;;;;;;;;;;;;;;16.08;52.72;101798.22;5006274;28;98645;-66
2022/05/15 02:19:33;;;;;;;;;;;;;;;16.19;52.29;101795.97;5003036;28;101333;-66
2022/05/15 02:21:59;;;;;;;;;;;;;;;15.94;53.15;101789.00;5003764;28;98709;-65
2022/05/15 02:24:26;;;;;;;;;;;;;;;15.78;53.52;101798.53;5008606;28;96725;-66
2022/05/15 02:26:52;;;;;;;;;;;;;;;15.88;53.31;101799.06;5004078;28;96899;-66
2022/05/15 02:29:19;;;;;;;;;;;;;;;15.84;53.40;101787.63;5010362;28;99340;-66
2022/05/15 02:31:47;;;;;;;;;;;;;;;16.03;52.88;101795.75;5001855;28;99182;-65
2022/05/15 02:34:13;;;;;;;;;;;;;;;15.89;53.08;101798.09;5008823;28;96787;-66
2022/05/15 02:36:39;;;;;;;;;;;;;;;15.91;52.98;101796.25;5005859;28;97355;-65
2022/05/15 02:39:06;;;;;;;;;;;;;;;16.08;52.60;101795.56;5001278;28;100777;-66
2022/05/15 02:41:33;;;;;;;;;;;;;;;16.28;51.80;101796.44;5007187;28;100454;-66
2022/05/15 02:44:00;;;;;;;;;;;;;;;15.95;52.90;101800.50;5001821;28;97646;-66
2022/05/15 02:46:26;;;;;;;;;;;;;;;15.86;53.08;101806.22;5003035;28;96805;-66
2022/05/15 02:51:38;;;;;;;;;;;;;;;15.90;53.16;101802.50;5005471;28;97062;-66
2022/05/15 02:54:05;;;;;;;;;;;;;;;15.75;53.54;101808.47;5000973;28;96849;-67
2022/05/15 02:56:32;;;;;;;;;;;;;;;15.93;52.90;101802.41;4998484;28;97290;-66
2022/05/15 02:58:59;;;;;;;;;;;;;;;15.94;52.61;101804.13;4998386;28;101267;-68
2022/05/15 03:01:26;;;;;;;;;;;;;;;16.00;52.58;101798.53;5003786;28;98921;-66
2022/05/15 03:03:53;;;;;;;;;;;;;;;15.87;52.98;101802.66;5008511;28;97025;-66
2022/05/15 03:06:20;;;;;;;;;;;;;;;15.96;52.69;101799.59;5008410;28;96971;-65
2022/05/15 03:08:48;;;;;;;;;;;;;;;16.07;52.35;101800.03;5002219;28;98976;-66
2022/05/15 03:11:16;;;;;;;;;;;;;;;15.89;53.01;101801.63;4998179;28;97451;-67
2022/05/15 03:13:42;;;;;;;;;;;;;;;15.94;52.92;101805.00;5002188;28;96930;-67
2022/05/15 03:16:09;;;;;;;;;;;;;;;15.83;53.20;101809.00;5002175;28;97106;-66
2022/05/15 03:18:38;;;;;;;;;;;;;;;16.14;52.57;101812.19;5003569;28;98956;-66
2022/05/15 03:21:06;;;;;;;;;;;;;;;15.84;53.25;101810.75;5003622;28;97736;-66
2022/05/15 03:23:32;;;;;;;;;;;;;;;15.74;53.54;101812.06;5011880;28;97128;-65
2022/05/15 03:25:58;;;;;;;;;;;;;;;15.95;52.33;101813.84;5002255;28;98484;-65
2022/05/15 03:28:25;;;;;;;;;;;;;;;15.89;52.51;101816.75;5010724;28;101092;-66
2022/05/15 03:30:51;;;;;;;;;;;;;;;16.05;52.06;101819.69;5002567;28;99076;-65
2022/05/15 03:33:17;;;;;;;;;;;;;;;16.18;51.96;101824.44;5005652;28;96787;-65
2022/05/15 03:35:44;;;;;;;;;;;;;;;16.07;52.38;101821.34;5000857;28;97188;-67
2022/05/15 03:38:11;;;;;;;;;;;;;;;16.06;52.39;101819.63;5008725;28;99342;-66
2022/05/15 03:40:38;;;;;;;;;;;;;;;16.21;52.01;101818.13;5005583;28;100666;-67
2022/05/15 03:43:04;;;;;;;;;;;;;;;16.09;51.90;101814.13;5007090;28;96882;-67
2022/05/15 03:45:30;;;;;;;;;;;;;;;16.33;51.24;101829.13;5004469;28;98451;-67
2022/05/15 03:47:57;;;;;;;;;;;;;;;16.26;51.39;101827.66;5009194;28;99209;-67
2022/05/15 03:50:25;;;;;;;;;;;;;;;16.29;51.57;101822.19;5010792;28;101476;-66
2022/05/15 03:52:51;;;;;;;;;;;;;;;16.21;51.78;101829.63;5007727;28;97758;-67
2022/05/15 03:55:19;;;;;;;;;;;;;;;16.03;52.35;101827.72;5000622;28;98998;-67
2022/05/15 03:57:46;;;;;;;;;;;;;;;16.08;52.55;101831.06;5004158;28;101999;-69
2022/05/15 04:00:13;;;;;;;;;;;;;;;16.31;51.66;101825.66;5003007;28;102320;-67
2022/05/15 04:02:39;;;;;;;;;;;;;;;16.30;51.37;101829.25;5001563;28;96867;-70
2022/05/15 04:05:07;;;;;;;;;;;;;;;16.23;51.30;101837.56;5006630;28;99505;-67
2022/05/15 04:07:33;;;;;;;;;;;;;;;16.18;51.68;101843.09;5001008;28;98964;-66
2022/05/15 04:09:59;;;;;;;;;;;;;;;16.17;52.12;101843.16;5001167;28;98797;-66
2022/05/15 04:12:27;;;;;;;;;;;;;;;16.27;51.76;101845.41;5005984;28;96885;-67
2022/05/15 04:14:53;;;;;;;;;;;;;;;16.56;51.40;101848.63;5004455;28;98024;-68
2022/05/15 04:17:20;;;;;;;;;;;;;;;16.53;51.06;101854.97;5006632;28;101580;-66
2022/05/15 04:19:49;;;;;;;;;;;;;;;16.80;50.03;101855.63;5002876;28;101378;-67
2022/05/15 04:22:15;;;;;;;;;;;;;;;17.03;49.17;101852.78;5008006;28;96742;-67
2022/05/15 04:24:41;;;;;;;;;;;;;;;16.96;48.55;101853.97;5010573;28;96946;-68
2022/05/15 04:27:08;;;;;;;;;;;;;;;16.80;47.53;101868.09;5002868;28;100020;-68
2022/05/15 04:29:35;;;;;;;;;;;;;;;17.31;46.59;101856.88;5006402;28;98761;-67
2022/05/15 04:32:02;;;;;;;;;;;;;;;17.07;46.49;101869.50;5005760;28;96830;-67
2022/05/15 04:34:28;;;;;;;;;;;;;;;17.44;46.76;101863.38;5008671;28;97709;-66
2022/05/15 04:36:55;;;;;;;;;;;;;;;17.26;45.78;101872.25;5001735;28;99110;-67
2022/05/15 04:39:22;;;;;;;;;;;;;;;17.38;44.82;101867.22;5010272;28;97963;-67
2022/05/15 04:41:48;;;;;;;;;;;;;;;17.54;44.49;101872.69;5006149;28;96859;-67
2022/05/15 04:44:15;;;;;;;;;;;;;;;17.45;44.27;101870.47;5008149;28;96850;-67
2022/05/15 04:46:42;;;;;;;;;;;;;;;18.09;43.07;101872.78;5003847;28;99440;-66
2022/05/15 04:49:09;;;;;;;;;;;;;;;18.33;42.85;101875.09;5004376;28;100904;-67
2022/05/15 04:51:35;;;;;;;;;;;;;;;18.56;42.35;101876.66;5005021;27;97947;-66
2022/05/15 04:54:01;;;;;;;;;;;;;;;18.33;42.24;101885.81;5006949;28;97026;-67
2022/05/15 04:56:28;;;;;;;;;;;;;;;18.70;41.92;101879.50;4999968;28;98968;-66
2022/05/15 04:58:54;;;;;;;;;;;;;;;18.77;41.65;101887.22;4999626;28;101499;-67
2022/05/15 05:01:24;;;;;;;;;;;;;;;18.65;41.65;101894.03;5003134;28;97641;-67
2022/05/15 05:03:52;;;;;;;;;;;;;;;18.53;41.68;101886.59;5006264;28;98734;-66
2022/05/15 05:06:18;;;;;;;;;;;;;;;18.29;42.15;101886.03;5002133;28;99320;-68
2022/05/15 05:08:44;;;;;;;;;;;;;;;18.38;41.91;101887.41;5004511;28;98981;-66
2022/05/15 05:11:11;;;;;;;;;;;;;;;18.68;41.67;101885.88;5001774;28;96766;-67
2022/05/15 05:13:37;;;;;;;;;;;;;;;18.79;41.08;101896.00;5006305;28;98816;-66
2022/05/15 05:16:04;;;;;;;;;;;;;;;18.95;40.86;101896.97;5001024;28;99397;-66
2022/05/15 05:18:30;;;;;;;;;;;;;;;19.15;40.45;101904.81;5002338;28;99246;-66
2022/05/15 05:20:58;;;;;;;;;;;;;;;18.70;41.14;101900.91;5005300;28;97516;-67
2022/05/15 05:23:24;;;;;;;;;;;;;;;18.54;41.74;101897.25;5000400;28;97269;-67
2022/05/15 05:25:51;;;;;;;;;;;;;;;18.97;40.99;101905.81;5002592;28;99515;-67
2022/05/15 05:28:17;;;;;;;;;;;;;;;19.11;40.43;101913.94;5001481;28;101670;-67
2022/05/15 05:30:44;;;;;;;;;;;;;;;19.40;40.04;101915.97;4999768;28;98762;-68
2022/05/15 05:33:10;;;;;;;;;;;;;;;19.47;40.20;101912.03;5005582;28;97164;-68
2022/05/15 05:35:37;;;;;;;;;;;;;;;19.42;39.89;101916.75;5003972;28;98910;-68
2022/05/15 05:38:05;;;;;;;;;;;;;;;19.33;40.02;101916.38;4999264;28;101747;-69
2022/05/15 05:40:32;;;;;;;;;;;;;;;19.04;40.84;101912.53;5008362;28;96834;-66
2022/05/15 05:42:59;;;;;;;;;;;;;;;19.22;40.26;101922.31;5001037;28;97261;-65
2022/05/15 05:45:25;;;;;;;;;;;;;;;19.49;39.94;101926.19;5009776;28;98234;-66
2022/05/15 05:47:52;;;;;;;;;;;;;;;19.79;39.32;101930.84;5000175;28;97693;-67
2022/05/15 05:50:20;;;;;;;;;;;;;;;19.56;39.52;101937.47;5010394;28;97747;-67
2022/05/15 05:52:46;;;;;;;;;;;;;;;19.01;40.66;101934.16;5007335;28;98790;-67
2022/05/15 05:55:14;;;;;;;;;;;;;;;19.33;40.29;101938.69;5006363;28;101562;-68
2022/05/15 05:57:42;;;;;;;;;;;;;;;19.68;39.66;101939.50;5003706;28;100467;-69
2022/05/15 06:00:10;;;;;;;;;;;;;;;19.34;40.43;101940.41;5003581;28;96971;-68
2022/05/15 06:02:36;;;;;;;;;;;;;;;19.83;39.38;101935.09;5006579;28;97680;-65
2022/05/15 06:05:02;;;;;;;;;;;;;;;19.60;39.82;101933.69;4994076;28;98134;-66
2022/05/15 06:07:29;;;;;;;;;;;;;;;18.96;41.43;101941.56;4994734;28;101442;-71
2022/05/15 06:10:25;;;;;;;;;;;;;;;19.52;40.05;101935.03;5001992;28;97590;-71
2022/05/15 06:12:52;;;;;;;;;;;;;;;21.82;36.01;101937.50;5004789;28;97522;-72
2022/05/15 06:15:18;;;;;;;;;;;;;;;22.10;34.91;101936.63;5000803;28;100245;-72
2022/05/15 06:17:45;;;;;;;;;;;;;;;21.41;35.92;101936.53;5004232;28;98772;-73
2022/05/15 06:20:11;;;;;;;;;;;;;;;20.40;38.03;101938.16;5007665;28;96833;-74
2022/05/15 06:22:38;;;;;;;;;;;;;;;20.67;37.76;101940.13;5001798;28;97126;-72
2022/05/15 06:25:05;;;;;;;;;;;;;;;20.57;37.88;101941.59;5002482;28;99165;-73
2022/05/15 06:27:31;;;;;;;;;;;;;;;19.64;39.15;101945.09;4999555;28;97773;-73
2022/05/15 06:29:59;;;;;;;;;;;;;;;19.94;38.91;101948.78;5005355;28;97097;-73
2022/05/15 06:32:26;;;;;;;;;;;;;;;20.36;38.28;101944.66;4998267;28;96997;-72
2022/05/15 06:34:53;;;;;;;;;;;;;;;20.35;38.25;101942.94;5003993;28;101403;-72
2022/05/15 06:37:20;;;;;;;;;;;;;;;20.12;38.57;101942.38;5007587;28;97655;-73
2022/05/15 06:39:46;;;;;;;;;;;;;;;20.01;38.96;101947.50;5005564;28;96639;-72
2022/05/15 06:42:13;;;;;;;;;;;;;;;20.88;37.35;101932.59;5004770;28;96873;-72
2022/05/15 06:44:39;;;;;;;;;;;;;;;20.24;37.76;101938.13;5000757;28;99553;-72
2022/05/15 06:47:07;;;;;;;;;;;;;;;20.09;38.47;101942.53;5009839;28;101209;-71
2022/05/15 06:49:34;;;;;;;;;;;;;;;19.91;38.58;101946.25;5000093;28;96781;-71
2022/05/15 06:52:00;;;;;;;;;;;;;;;20.77;36.72;101937.75;4999214;28;97111;-72
2022/05/15 06:54:27;;;;;;;;;;;;;;;21.31;36.02;101944.31;5003447;28;96854;-72
2022/05/15 06:59:37;;;;;;;;;;;;;;;19.65;39.14;101947.69;5000960;28;98484;-71
2022/05/15 07:02:04;;;;;;;;;;;;;;;19.24;39.82;101946.31;5006595;28;96919;-72
2022/05/15 07:04:31;;;;;;;;;;;;;;;19.70;38.19;101944.75;5002932;28;98914;-71
2022/05/15 07:06:57;;;;;;;;;;;;;;;20.60;36.43;101936.06;5008969;28;98786;-72
2022/05/15 07:09:26;;;;;;;;;;;;;;;20.18;37.73;101949.22;5005082;28;96881;-71
2022/05/15 07:11:52;;;;;;;;;;;;;;;21.25;36.04;101946.53;5008447;28;96919;-72
2022/05/15 07:14:19;;;;;;;;;;;;;;;22.20;33.92;101937.75;5000864;28;98203;-71
2022/05/15 07:16:45;;;;;;;;;;;;;;;22.02;33.36;101941.63;5009628;28;98742;-73
2022/05/15 07:19:11;;;;;;;;;;;;;;;21.88;33.40;101952.38;5006366;28;96960;-71
2022/05/15 07:21:41;;;;;;;;;;;;;;;20.72;35.16;101942.53;5006656;28;96830;-71
2022/05/15 07:24:08;;;;;;;;;;;;;;;21.19;34.87;101954.97;5008824;28;99526;-72
2022/05/15 07:26:34;;;;;;;;;;;;;;;21.25;34.87;101952.78;5003080;28;98769;-71
2022/05/15 07:29:01;;;;;;;;;;;;;;;20.95;35.78;101952.75;5003610;28;96872;-71
2022/05/15 07:31:27;;;;;;;;;;;;;;;21.64;34.67;101949.44;5007997;28;97177;-72
2022/05/15 07:33:53;;;;;;;;;;;;;;;21.62;34.39;101954.03;5000394;28;99335;-72
2022/05/15 07:36:20;;;;;;;;;;;;;;;20.64;36.05;101950.16;5003593;28;98830;-73
2022/05/15 07:38:47;;;;;;;;;;;;;;;20.68;36.28;101943.63;4997494;28;98281;-71
2022/05/15 07:41:14;;;;;;;;;;;;;;;21.48;35.06;101954.91;5003613;28;97128;-71
2022/05/15 07:43:41;;;;;;;;;;;;;;;21.47;34.74;101953.16;4998646;28;97805;-71
2022/05/15 07:46:08;;;;;;;;;;;;;;;21.33;34.71;101952.31;5003682;28;97612;-73
2022/05/15 07:48:34;;;;;;;;;;;;;;;21.37;35.11;101952.00;5000963;28;96982;-72
2022/05/15 07:51:00;;;;;;;;;;;;;;;20.68;35.98;101947.19;4996779;27;97022;-71
2022/05/15 07:53:27;;;;;;;;;;;;;;;20.57;35.02;101949.66;4999708;28;99298;-73
2022/05/15 07:55:56;;;;;;;;;;;;;;;21.40;34.72;101953.63;5003220;28;98776;-73
2022/05/15 07:58:23;;;;;;;;;;;;;;;20.92;34.64;101952.94;5005342;28;97527;-70
2022/05/15 08:00:50;;;;;;;;;;;;;;;21.15;34.49;101945.31;5004753;28;96847;-72
2022/05/15 08:03:16;;;;;;;;;;;;;;;21.37;33.97;101945.78;5006953;28;99459;-72
2022/05/15 08:08:26;;;;;;;;;;;;;;;22.07;32.51;101952.09;5007385;28;98743;-72
2022/05/15 08:10:54;;;;;;;;;;;;;;;21.92;32.81;101945.00;5004296;28;96890;-72
2022/05/15 08:13:22;;;;;;;;;;;;;;;21.44;33.93;101952.50;5001864;28;99615;-71
2022/05/15 08:15:49;;;;;;;;;;;;;;;20.78;35.29;101941.28;5000366;28;98979;-72
2022/05/15 08:23:46;;;;;;;;;;;;;;;21.81;33.15;101941.16;5001026;28;97266;-72
2022/05/15 08:26:13;;;;;;;;;;;;;;;21.54;32.89;101940.19;5001264;28;99198;-72
2022/05/15 08:28:40;;;;;;;;;;;;;;;21.42;33.29;101949.03;5002319;28;97116;-73
2022/05/15 08:31:08;;;;;;;;;;;;;;;21.15;33.32;101943.50;5000586;28;98564;-74
2022/05/15 08:33:34;;;;;;;;;;;;;;;21.32;33.11;101942.50;5002665;28;99662;-73
2022/05/15 08:36:01;;;;;;;;;;;;;;;20.96;33.68;101943.75;4999405;28;98149;-72
2022/05/15 08:38:27;;;;;;;;;;;;;;;20.64;33.79;101942.09;5006537;28;97023;-72
2022/05/15 08:40:56;;;;;;;;;;;;;;;20.27;34.41;101948.72;5006000;28;97211;-73
2022/05/15 08:43:28;;;;;;;;;;;;;;;20.92;33.16;101933.28;5004567;28;100951;-66
2022/05/15 08:46:01;;;;;;;;;;;;;;;20.95;33.10;101938.44;4999054;28;99261;-66
2022/05/15 08:48:28;;;;;;;;;;;;;;;21.60;32.01;101936.25;5001883;28;97275;-66
2022/05/15 08:50:55;;;;;;;;;;;;;;;21.94;31.15;101930.47;5009182;28;97839;-66
2022/05/15 08:53:22;;;;;;;;;;;;;;;22.45;30.38;101936.16;5002187;28;98407;-66
2022/05/15 08:55:51;;;;;;;;;;;;;;;21.50;31.11;101941.38;4996160;28;99485;-66
2022/05/15 08:58:23;;;;;;;;;;;;;;;21.57;31.68;101942.72;5002799;28;98859;-68
2022/05/15 09:00:51;;;;;;;;;;;;;;;21.34;31.84;101932.50;5003532;28;97416;-68
2022/05/15 09:03:19;;;;;;;;;;;;;;;22.62;29.66;101938.56;4998303;28;98948;-68
2022/05/15 09:05:49;;;;;;;;;;;;;;;21.96;30.64;101946.56;5003268;28;98313;-66
2022/05/15 09:08:23;;;;;;;;;;;;;;;22.55;29.53;101948.91;4997409;28;97682;-67
2022/05/15 09:10:57;;;;;;;;;;;;;;;22.14;29.28;101948.91;4996128;28;98679;-66
2022/05/15 09:13:30;;;;;;;;;;;;;;;22.85;28.29;101937.03;4987722;28;98667;-67
2022/05/15 09:16:00;;;;;;;;;;;;;;;22.55;29.45;101943.50;4986897;28;101397;-66
2022/05/15 09:18:27;;;;;;;;;;;;;;;22.27;29.32;101932.81;4992213;28;98806;-66
2022/05/15 09:20:59;;;;;;;;;;;;;;;22.74;28.12;101939.59;5001566;28;97326;-66
2022/05/15 09:23:29;;;;;;;;;;;;;;;22.93;27.75;101932.00;4996330;28;100408;-69
2022/05/15 09:25:56;;;;;;;;;;;;;;;22.86;28.45;101936.06;4997353;28;99478;-69
2022/05/15 09:28:26;;;;;;;;;;;;;;;22.84;28.13;101933.47;4995278;28;97383;-66
2022/05/15 09:30:54;;;;;;;;;;;;;;;23.04;27.45;101924.88;5001857;28;97423;-68
2022/05/15 09:33:27;;;;;;;;;;;;;;;22.68;27.57;101922.00;5005556;28;101965;-67
2022/05/15 09:36:08;;;;;;;;;;;;;;;22.72;27.75;101922.63;4994421;28;99111;-67
2022/05/15 09:38:35;;;;;;;;;;;;;;;22.34;27.27;101923.38;4995626;28;97228;-66
2022/05/15 09:43:55;;;;;;;;;;;;;;;22.05;28.12;101917.22;4997363;28;98794;-67
2022/05/15 09:46:23;;;;;;;;;;;;;;;22.17;27.46;101919.13;4993357;28;100564;-66
2022/05/15 09:48:53;;;;;;;;;;;;;;;22.92;27.05;101908.69;4993658;28;97572;-67
2022/05/15 09:51:26;;;;;;;;;;;;;;;22.40;27.96;101908.63;4996099;28;99055;-67
2022/05/15 09:53:53;;;;;;;;;;;;;;;22.32;28.26;101908.31;4997269;28;100706;-68
2022/05/15 09:56:24;;;;;;;;;;;;;;;22.81;27.63;101908.56;4997932;28;101601;-68
2022/05/15 09:58:53;;;;;;;;;;;;;;;23.52;26.52;101908.09;4995237;28;96872;-67
2022/05/15 10:01:22;;;;;;;;;;;;;;;23.81;25.71;101914.97;4999358;28;96964;-67
2022/05/15 10:03:49;;;;;;;;;;;;;;;23.49;25.96;101913.72;4998405;28;99224;-72
2022/05/15 10:06:19;;;;;;;;;;;;;;;23.11;26.46;101914.53;4995447;28;101556;-72
2022/05/15 10:08:46;;;;;;;;;;;;;;;23.25;26.70;101917.13;5003245;28;97047;-76
2022/05/15 10:11:16;;;;;;;;;;;;;;;23.32;26.77;101906.78;4998924;28;97341;-73
2022/05/15 10:13:45;;;;;;;;;;;;;;;23.51;26.33;101911.75;4997977;28;101435;-73
2022/05/15 10:16:14;;;;;;;;;;;;;;;23.39;26.24;101898.16;4995160;28;98161;-72
2022/05/15 10:18:45;;;;;;;;;;;;;;;23.75;25.65;101907.31;5001381;28;96939;-73
2022/05/15 10:21:12;;;;;;;;;;;;;;;23.61;26.04;101902.91;4999707;28;97593;-74
2022/05/15 10:23:42;;;;;;;;;;;;;;;22.91;26.55;101893.50;4996358;28;100179;-73
2022/05/15 10:26:13;;;;;;;;;;;;;;;23.20;26.43;101897.72;4997531;28;99014;-73
2022/05/15 10:28:41;;;;;;;;;;;;;;;22.57;27.05;101893.09;4997353;28;98557;-72
2022/05/15 10:31:12;;;;;;;;;;;;;;;22.54;26.93;101887.91;4999235;28;97050;-72
2022/05/15 10:33:41;;;;;;;;;;;;;;;22.35;26.66;101891.94;4998656;28;98971;-72
2022/05/15 10:36:15;;;;;;;;;;;;;;;22.63;25.80;101889.97;4994415;28;101596;-74
2022/05/15 10:38:49;;;;;;;;;;;;;;;22.86;25.84;101877.66;4995379;28;97236;-73
2022/05/15 10:41:19;;;;;;;;;;;;;;;22.80;25.55;101874.50;4991994;28;97928;-73
2022/05/15 10:43:54;;;;;;;;;;;;;;;22.42;26.35;101874.41;4995074;28;99527;-72
2022/05/15 10:46:28;;;;;;;;;;;;;;;23.07;25.66;101864.50;4994097;28;98736;-68
2022/05/15 10:49:02;;;;;;;;;;;;;;;22.89;25.98;101869.38;5001947;28;96927;-67
2022/05/15 10:51:36;;;;;;;;;;;;;;;23.24;25.40;101860.63;4994358;28;97671;-66
2022/05/15 10:57:24;;;;;;;;;;;;;;;23.27;25.50;101861.28;4967490;28;99048;-67
2022/05/15 10:59:55;;;;;;;;;;;;;;;22.82;26.07;101854.59;4993202;28;97981;-73
2022/05/15 11:02:40;;;;;;;;;;;;;;;22.80;26.13;101866.44;4996387;28;96824;-74
2022/05/15 11:05:09;;;;;;;;;;;;;;;22.43;26.90;101866.22;4990596;28;100643;-73
2022/05/15 11:07:38;;;;;;;;;;;;;;;23.02;26.04;101870.22;4992658;28;99231;-75
2022/05/15 11:10:09;;;;;;;;;;;;;;;22.45;26.55;101858.88;4998726;28;97879;-72
2022/05/15 11:12:38;;;;;;;;;;;;;;;23.32;25.49;101863.63;4991438;28;97656;-74
2022/05/15 11:15:12;;;;;;;;;;;;;;;23.68;24.83;101863.72;4997708;28;102413;-72
2022/05/15 11:17:46;;;;;;;;;;;;;;;23.53;25.32;101855.88;5001298;28;98555;-67
2022/05/15 11:20:15;;;;;;;;;;;;;;;23.74;25.00;101854.31;4999418;28;97183;-66
2022/05/15 11:22:46;;;;;;;;;;;;;;;23.97;24.75;101852.59;4996484;28;97870;-69
2022/05/15 11:25:18;;;;;;;;;;;;;;;23.69;25.12;101851.09;4999896;28;97630;-67
2022/05/15 11:27:47;;;;;;;;;;;;;;;23.87;25.05;101855.13;4998072;28;98673;-67
2022/05/15 11:30:17;;;;;;;;;;;;;;;23.16;25.43;101853.09;4993251;28;97521;-67
2022/05/15 11:33:01;;;;;;;;;;;;;;;23.87;25.24;101855.13;5000081;28;97157;-67
2022/05/15 11:35:33;;;;;;;;;;;;;;;24.12;24.75;101840.66;4998204;28;99100;-69
2022/05/15 11:38:05;;;;;;;;;;;;;;;23.56;24.89;101851.13;4995586;28;101311;-72
2022/05/15 11:40:34;;;;;;;;;;;;;;;23.90;24.56;101841.41;4999624;28;97347;-74
2022/05/15 11:43:21;;;;;;;;;;;;;;;23.73;24.56;101836.41;5000964;28;97053;-72
2022/05/15 11:45:49;;;;;;;;;;;;;;;23.75;24.90;101840.72;4998076;28;99383;-72
2022/05/15 11:48:20;;;;;;;;;;;;;;;24.01;24.29;101829.81;5002518;28;98769;-72
2022/05/15 11:50:54;;;;;;;;;;;;;;;23.92;24.45;101823.25;4998044;28;96893;-72
2022/05/15 11:53:26;;;;;;;;;;;;;;;24.17;24.01;101827.69;4999163;28;99704;-73
2022/05/15 11:55:53;;;;;;;;;;;;;;;23.44;24.77;101823.16;4994795;28;99416;-72
2022/05/15 11:58:36;;;;;;;;;;;;;;;24.00;24.11;101815.47;4999880;28;99835;-73
2022/05/15 12:01:17;;;;;;;;;;;;;;;23.51;25.11;101829.00;4997838;28;96905;-73
2022/05/15 12:03:49;;;;;;;;;;;;;;;23.74;24.72;101812.00;4981764;28;97864;-73
2022/05/15 12:06:17;;;;;;;;;;;;;;;23.79;24.48;101814.34;4993208;28;99953;-72
2022/05/15 12:08:44;;;;;;;;;;;;;;;23.43;24.88;101821.44;4990535;27;100538;-74
2022/05/15 12:11:28;;;;;;;;;;;;;;;23.69;24.58;101802.53;4997579;28;98418;-73
2022/05/15 12:13:55;;;;;;;;;;;;;;;23.29;25.02;101809.94;5000380;28;96895;-72
2022/05/15 12:16:23;;;;;;;;;;;;;;;23.34;24.77;101803.22;5006639;28;99176;-73
2022/05/15 12:18:55;;;;;;;;;;;;;;;24.16;24.18;101793.53;4998324;28;99278;-72
2022/05/15 12:21:25;;;;;;;;;;;;;;;24.29;24.68;101796.19;4997810;28;97692;-73
2022/05/15 12:26:44;;;;;;;;;;;;;;;24.80;23.39;101792.19;5004659;28;97390;-73
2022/05/15 12:29:23;;;;;;;;;;;;;;;24.48;23.54;101791.13;4996741;28;99439;-70
2022/05/15 12:31:56;;;;;;;;;;;;;;;24.90;23.83;101784.22;4998781;28;98936;-72
2022/05/15 12:34:25;;;;;;;;;;;;;;;24.96;23.87;101786.44;4998612;28;98305;-73
2022/05/15 12:36:53;;;;;;;;;;;;;;;24.82;23.72;101781.22;4995344;28;100837;-74
2022/05/15 12:39:22;;;;;;;;;;;;;;;25.14;22.95;101776.84;4991658;28;99260;-73
2022/05/15 12:41:50;;;;;;;;;;;;;;;25.19;22.52;101777.34;5000238;28;98846;-72
2022/05/15 12:44:27;;;;;;;;;;;;;;;24.91;23.30;101777.84;4999148;28;98596;-72
2022/05/15 12:46:55;;;;;;;;;;;;;;;25.29;23.10;101777.47;5003001;28;98626;-72
2022/05/15 12:49:29;;;;;;;;;;;;;;;25.36;22.39;101768.72;4990283;28;100231;-72
2022/05/15 12:52:08;;;;;;;;;;;;;;;25.60;22.27;101767.75;4995638;28;97234;-71
2022/05/15 12:54:35;;;;;;;;;;;;;;;25.56;22.74;101758.97;4998355;28;96864;-67
2022/05/15 12:57:04;;;;;;;;;;;;;;;25.44;22.59;101759.97;5002247;28;97789;-66
2022/05/15 12:59:34;;;;;;;;;;;;;;;25.76;22.71;101765.47;4997457;28;98813;-67
2022/05/15 13:02:13;;;;;;;;;;;;;;;25.67;22.32;101756.25;4997973;28;96861;-66
2022/05/15 13:04:45;;;;;;;;;;;;;;;26.26;21.60;101755.81;4996612;28;97627;-68